createdAt,value
2017-10-02T00:00:16.384Z,36.30
2017-10-02T00:02:44.009Z,40.95
2017-10-02T00:05:11.620Z,37.70
2017-10-02T00:07:39.252Z,52.75
2017-10-02T00:10:06.895Z,41.90
2017-10-02T00:12:34.522Z,41.58
2017-10-02T00:15:02.115Z,38.55
2017-10-02T00:17:29.739Z,45.12
2017-10-02T00:19:57.357Z,46.83
2017-10-02T00:22:24.993Z,51.70
2017-10-02T00:24:52.595Z,45.85
2017-10-02T00:27:20.263Z,38.88
2017-10-02T00:29:47.880Z,39.25
2017-10-02T00:32:15.515Z,43.90
2017-10-02T00:34:43.144Z,41.55
2017-10-02T00:37:10.775Z,43.60
2017-10-02T00:39:38.393Z,41.13
2017-10-02T00:42:06.947Z,46.40
2017-10-02T00:44:34.547Z,46.58
2017-10-02T00:47:02.870Z,41.75
2017-10-02T00:49:30.465Z,47.88
2017-10-02T00:51:58.101Z,45.85
2017-10-02T00:54:26.373Z,52.47
2017-10-02T00:56:54.019Z,58.85
2017-10-02T00:59:21.661Z,48.50
2017-10-02T01:01:49.291Z,51.60
2017-10-02T01:04:17.100Z,51.25
2017-10-02T01:06:45.236Z,44.38
2017-10-02T01:09:12.838Z,46.50
2017-10-02T01:11:40.519Z,58.20
2017-10-02T01:14:08.142Z,44.55
2017-10-02T01:16:35.724Z,53.95
2017-10-02T01:19:03.358Z,51.45
2017-10-02T01:21:31.718Z,42.95
2017-10-02T01:23:59.419Z,68.53
2017-10-02T01:26:27.050Z,50.12
2017-10-02T01:28:54.682Z,47.25
2017-10-02T01:31:22.302Z,46.95
2017-10-02T01:33:49.897Z,50.85
2017-10-02T01:36:17.521Z,43.53
2017-10-02T01:38:45.120Z,49.83
2017-10-02T01:41:12.742Z,48.92
2017-10-02T01:43:40.638Z,53.17
2017-10-02T01:46:08.252Z,51.67
2017-10-02T01:48:35.870Z,53.65
2017-10-02T01:51:03.478Z,46.60
2017-10-02T01:53:31.112Z,51.37
2017-10-02T01:55:58.743Z,51.85
2017-10-02T01:58:26.458Z,50.85
2017-10-02T02:00:54.130Z,49.40
2017-10-02T02:03:23.241Z,52.42
2017-10-02T02:06:08.300Z,49.45
2017-10-02T02:08:53.460Z,51.42
2017-10-02T02:11:21.094Z,52.88
2017-10-02T02:13:48.672Z,49.50
2017-10-02T02:16:16.307Z,52.05
2017-10-02T02:18:43.930Z,52.30
2017-10-02T02:21:11.575Z,46.22
2017-10-02T02:23:39.165Z,63.97
2017-10-02T02:26:06.862Z,51.58
2017-10-02T02:28:34.439Z,55.25
2017-10-02T02:31:02.062Z,49.05
2017-10-02T02:33:29.678Z,58.83
2017-10-02T02:35:57.268Z,51.90
2017-10-02T02:38:24.899Z,65.40
2017-10-02T02:40:53.284Z,53.20
2017-10-02T02:43:21.720Z,62.13
2017-10-02T02:45:49.342Z,59.45
2017-10-02T02:48:16.936Z,56.80
2017-10-02T02:50:44.548Z,67.30
2017-10-02T02:53:12.189Z,66.90
2017-10-02T02:55:39.784Z,67.18
2017-10-02T02:58:07.425Z,71.93
2017-10-02T03:00:35.813Z,64.45
2017-10-02T03:03:03.441Z,66.18
2017-10-02T03:05:33.437Z,59.22
2017-10-02T03:08:01.579Z,63.70
2017-10-02T03:10:29.165Z,66.70
2017-10-02T03:12:56.746Z,59.97
2017-10-02T03:15:24.357Z,69.60
2017-10-02T03:17:51.982Z,69.90
2017-10-02T03:20:19.828Z,63.30
2017-10-02T03:22:47.430Z,62.92
2017-10-02T03:25:15.809Z,56.10
2017-10-02T03:27:44.276Z,74.35
2017-10-02T03:30:11.863Z,57.10
2017-10-02T03:32:39.492Z,60.03
2017-10-02T03:35:07.033Z,77.07
2017-10-02T03:37:34.654Z,65.72
2017-10-02T03:40:02.318Z,67.65
2017-10-02T03:42:29.938Z,64.75
2017-10-02T03:44:57.525Z,52.65
2017-10-02T03:47:25.127Z,44.92
2017-10-02T03:49:52.704Z,43.72
2017-10-02T03:52:20.304Z,43.22
2017-10-02T03:54:47.892Z,34.25
2017-10-02T03:57:15.489Z,37.47
2017-10-02T03:59:43.134Z,36.95
2017-10-02T04:02:10.775Z,41.30
2017-10-02T04:04:38.459Z,37.55
2017-10-02T04:07:06.538Z,33.35
2017-10-02T04:09:34.152Z,36.55
2017-10-02T04:12:02.378Z,29.35
2017-10-02T04:14:30.006Z,28.65
2017-10-02T04:16:57.694Z,30.60
2017-10-02T04:19:25.316Z,29.83
2017-10-02T04:21:52.903Z,38.90
2017-10-02T04:24:20.501Z,31.73
2017-10-02T04:26:48.112Z,34.58
2017-10-02T04:29:16.417Z,31.08
2017-10-02T04:31:45.079Z,34.13
2017-10-02T04:34:12.660Z,41.78
2017-10-02T04:36:40.298Z,26.65
2017-10-02T04:39:07.885Z,35.30
2017-10-02T04:41:35.540Z,38.17
2017-10-02T04:44:03.167Z,27.85
2017-10-02T04:46:30.754Z,30.58
2017-10-02T04:48:59.149Z,32.13
2017-10-02T04:51:27.425Z,31.30
2017-10-02T04:53:55.155Z,28.12
2017-10-02T04:56:22.778Z,35.70
2017-10-02T04:58:51.125Z,34.17
2017-10-02T05:01:18.769Z,32.72
2017-10-02T05:03:46.691Z,35.10
2017-10-02T05:06:15.042Z,32.40
2017-10-02T05:08:42.625Z,34.90
2017-10-02T05:11:10.962Z,30.80
2017-10-02T05:13:38.655Z,29.80
2017-10-02T05:16:06.240Z,35.17
2017-10-02T05:18:33.824Z,46.03
2017-10-02T05:21:01.420Z,44.83
2017-10-02T05:23:29.045Z,33.95
2017-10-02T05:25:56.665Z,37.05
2017-10-02T05:28:24.296Z,32.03
2017-10-02T05:30:52.110Z,33.50
2017-10-02T05:33:19.734Z,27.13
2017-10-02T05:35:47.324Z,26.25
2017-10-02T05:38:15.734Z,43.03
2017-10-02T05:40:43.376Z,29.90
2017-10-02T05:43:11.738Z,28.85
2017-10-02T05:45:39.377Z,28.60
2017-10-02T05:48:07.001Z,29.33
2017-10-02T05:50:34.612Z,32.03
2017-10-02T05:53:02.234Z,29.08
2017-10-02T05:55:29.822Z,28.08
2017-10-02T05:57:57.412Z,25.58
2017-10-02T06:00:25.058Z,30.75
2017-10-02T06:02:52.689Z,44.72
2017-10-02T06:05:20.406Z,32.78
2017-10-02T06:07:48.094Z,35.28
2017-10-02T06:10:15.810Z,37.13
2017-10-02T06:12:43.403Z,36.92
2017-10-02T06:15:10.991Z,26.60
2017-10-02T06:17:38.620Z,39.20
2017-10-02T06:20:06.205Z,24.37
2017-10-02T06:22:33.840Z,27.77
2017-10-02T06:25:02.188Z,25.05
2017-10-02T06:27:29.811Z,31.87
2017-10-02T06:29:57.446Z,24.48
2017-10-02T06:32:25.834Z,24.50
2017-10-02T06:34:53.495Z,27.42
2017-10-02T06:37:21.098Z,22.45
2017-10-02T06:39:49.040Z,22.37
2017-10-02T06:42:17.253Z,20.75
2017-10-02T06:44:44.959Z,28.98
2017-10-02T06:47:12.606Z,26.20
2017-10-02T06:49:40.206Z,24.00
2017-10-02T06:52:08.105Z,27.73
2017-10-02T06:54:41.595Z,29.83
2017-10-02T06:57:09.285Z,33.45
2017-10-02T06:59:36.904Z,32.70
2017-10-02T07:02:04.510Z,25.75
2017-10-02T07:04:32.180Z,26.92
2017-10-02T07:06:59.771Z,22.50
2017-10-02T07:09:27.379Z,21.15
2017-10-02T07:11:55.011Z,21.55
2017-10-02T07:14:22.662Z,25.27
2017-10-02T07:16:50.297Z,34.13
2017-10-02T07:19:17.997Z,21.15
2017-10-02T07:21:45.625Z,24.98
2017-10-02T07:24:13.295Z,23.35
2017-10-02T07:26:41.128Z,22.27
2017-10-02T07:29:08.748Z,25.15
2017-10-02T07:31:36.379Z,26.33
2017-10-02T07:34:04.014Z,23.00
2017-10-02T07:36:31.801Z,26.60
2017-10-02T07:39:00.154Z,20.57
2017-10-02T07:41:27.789Z,21.13
2017-10-02T07:43:55.468Z,24.95
2017-10-02T07:46:23.100Z,21.83
2017-10-02T07:48:50.696Z,23.17
2017-10-02T07:51:18.289Z,26.15
2017-10-02T07:53:45.971Z,36.22
2017-10-02T07:56:13.607Z,34.63
2017-10-02T07:58:41.206Z,21.02
2017-10-02T08:01:08.804Z,23.87
2017-10-02T08:03:36.422Z,18.60
2017-10-02T08:06:04.055Z,24.17
2017-10-02T08:08:31.685Z,30.00
2017-10-02T08:10:59.317Z,28.55
2017-10-02T08:13:26.861Z,33.60
2017-10-02T08:15:54.510Z,26.25
2017-10-02T08:18:22.090Z,31.10
2017-10-02T08:20:49.732Z,36.28
2017-10-02T08:23:17.366Z,29.15
2017-10-02T08:25:44.998Z,31.77
2017-10-02T08:28:12.722Z,41.80
2017-10-02T08:30:40.313Z,34.92
2017-10-02T08:33:07.954Z,32.83
2017-10-02T08:35:35.825Z,31.58
2017-10-02T08:38:03.453Z,34.75
2017-10-02T08:40:31.089Z,33.45
2017-10-02T08:42:58.711Z,34.15
2017-10-02T08:45:26.378Z,33.45
2017-10-02T08:47:53.990Z,25.60
2017-10-02T08:50:21.659Z,25.25
2017-10-02T08:52:49.264Z,26.00
2017-10-02T08:55:16.935Z,27.15
2017-10-02T08:57:44.518Z,28.25
2017-10-02T09:00:12.151Z,24.17
2017-10-02T09:02:39.770Z,23.62
2017-10-02T09:05:07.358Z,25.40
2017-10-02T09:07:34.992Z,26.77
2017-10-02T09:10:03.353Z,25.73
2017-10-02T09:12:33.377Z,27.85
2017-10-02T09:15:01.225Z,21.73
2017-10-02T09:17:28.870Z,25.20
2017-10-02T09:19:56.499Z,21.33
2017-10-02T09:22:24.133Z,21.48
2017-10-02T09:24:52.534Z,25.75
2017-10-02T09:27:20.324Z,29.77
2017-10-02T09:29:47.986Z,26.67
2017-10-02T09:32:15.607Z,21.93
2017-10-02T09:34:43.998Z,16.60
2017-10-02T09:37:11.621Z,25.33
2017-10-02T09:39:39.280Z,29.33
2017-10-02T09:42:06.921Z,21.77
2017-10-02T09:44:34.547Z,18.97
2017-10-02T09:47:02.148Z,13.67
2017-10-02T09:49:29.812Z,19.17
2017-10-02T09:51:57.478Z,15.07
2017-10-02T09:54:25.068Z,20.53
2017-10-02T09:56:53.476Z,15.27
2017-10-02T09:59:21.710Z,25.17
2017-10-02T10:01:49.372Z,21.43
2017-10-02T10:04:16.976Z,18.03
2017-10-02T10:06:44.608Z,21.60
2017-10-02T10:09:12.302Z,19.67
2017-10-02T10:11:39.924Z,20.73
2017-10-02T10:14:07.770Z,12.50
2017-10-02T10:16:35.415Z,11.77
2017-10-02T10:19:03.033Z,13.83
2017-10-02T10:21:30.670Z,14.37
2017-10-02T10:23:58.326Z,15.45
2017-10-02T10:26:26.126Z,15.32
2017-10-02T10:28:53.756Z,15.95
2017-10-02T10:31:21.472Z,12.75
2017-10-02T10:33:49.111Z,14.18
2017-10-02T10:36:16.692Z,33.97
2017-10-02T10:38:44.318Z,16.95
2017-10-02T10:41:11.961Z,14.07
2017-10-02T10:43:39.626Z,17.58
2017-10-02T10:46:07.215Z,15.38
2017-10-02T10:48:34.835Z,15.43
2017-10-02T10:51:02.469Z,13.65
2017-10-02T10:53:30.096Z,12.13
2017-10-02T10:55:57.654Z,17.52
2017-10-02T10:58:26.052Z,19.17
2017-10-02T11:00:53.815Z,11.30
2017-10-02T11:03:21.494Z,13.85
2017-10-02T11:05:49.071Z,12.77
2017-10-02T11:08:16.702Z,14.60
2017-10-02T11:10:44.382Z,12.25
2017-10-02T11:13:11.999Z,14.27
2017-10-02T11:15:40.349Z,19.98
2017-10-02T11:18:07.954Z,33.15
2017-10-02T11:20:35.615Z,14.75
2017-10-02T11:23:03.226Z,15.75
2017-10-02T11:25:30.828Z,16.62
2017-10-02T11:27:59.197Z,21.80
2017-10-02T11:30:26.871Z,15.90
2017-10-02T11:32:55.554Z,13.13
2017-10-02T11:35:23.183Z,14.27
2017-10-02T11:37:50.797Z,12.88
2017-10-02T11:40:18.466Z,11.43
2017-10-02T11:42:46.054Z,15.35
2017-10-02T11:45:13.690Z,14.50
2017-10-02T11:47:41.376Z,16.42
2017-10-02T11:50:09.010Z,17.55
2017-10-02T11:52:36.638Z,14.18
2017-10-02T11:55:05.043Z,17.92
2017-10-02T11:57:32.679Z,20.33
2017-10-02T12:00:00.307Z,17.85
2017-10-02T12:02:27.993Z,17.50
2017-10-02T12:04:55.621Z,25.42
2017-10-02T12:07:23.210Z,13.13
2017-10-02T12:09:50.807Z,21.15
2017-10-02T12:12:18.401Z,30.60
2017-10-02T12:14:46.042Z,19.87
2017-10-02T12:17:13.710Z,11.35
2017-10-02T12:19:41.333Z,21.73
2017-10-02T12:22:12.722Z,15.15
2017-10-02T12:24:40.710Z,20.12
2017-10-02T12:27:08.290Z,16.60
2017-10-02T12:29:35.938Z,13.13
2017-10-02T12:32:03.603Z,20.20
2017-10-02T12:34:31.244Z,22.40
2017-10-02T12:36:58.920Z,17.15
2017-10-02T12:39:26.558Z,20.73
2017-10-02T12:41:54.232Z,15.13
2017-10-02T12:44:21.878Z,13.90
2017-10-02T12:46:49.511Z,13.20
2017-10-02T12:49:17.956Z,13.05
2017-10-02T12:51:45.673Z,14.50
2017-10-02T12:54:13.390Z,24.27
2017-10-02T12:56:41.077Z,16.80
2017-10-02T12:59:08.802Z,21.42
2017-10-02T13:01:36.475Z,17.67
2017-10-02T13:04:04.191Z,17.83
2017-10-02T13:06:31.883Z,15.85
2017-10-02T13:08:59.535Z,15.40
2017-10-02T13:11:27.219Z,18.65
2017-10-02T13:13:54.842Z,11.12
2017-10-02T13:16:22.480Z,15.65
2017-10-02T13:18:50.113Z,16.20
2017-10-02T13:21:17.750Z,13.00
2017-10-02T13:23:45.467Z,14.82
2017-10-02T13:26:13.121Z,16.62
2017-10-02T13:28:40.774Z,18.48
2017-10-02T13:31:08.356Z,24.65
2017-10-02T13:33:36.719Z,17.50
2017-10-02T13:36:04.366Z,17.73
2017-10-02T13:38:31.973Z,16.42
2017-10-02T13:40:59.599Z,11.48
2017-10-02T13:43:27.232Z,12.07
2017-10-02T13:45:54.840Z,18.70
2017-10-02T13:48:22.465Z,19.95
2017-10-02T13:50:50.879Z,10.73
2017-10-02T13:53:18.558Z,14.65
2017-10-02T13:55:46.184Z,10.20
2017-10-02T13:58:13.795Z,9.75
2017-10-02T14:00:41.410Z,10.93
2017-10-02T14:03:09.054Z,11.48
2017-10-02T14:05:36.685Z,13.55
2017-10-02T14:08:04.370Z,11.75
2017-10-02T14:10:32.035Z,14.57
2017-10-02T14:12:59.685Z,21.00
2017-10-02T14:15:27.361Z,42.97
2017-10-02T14:17:55.017Z,26.15
2017-10-02T14:20:22.613Z,16.33
2017-10-02T14:22:50.264Z,18.05
2017-10-02T14:25:17.853Z,14.75
2017-10-02T14:27:46.223Z,15.65
2017-10-02T14:30:14.622Z,15.13
2017-10-02T14:32:42.218Z,28.42
2017-10-02T14:35:09.851Z,56.10
2017-10-02T14:37:37.486Z,48.33
2017-10-02T14:40:05.170Z,67.87
2017-10-02T14:42:32.766Z,34.28
2017-10-02T14:45:00.478Z,19.65
2017-10-02T14:47:28.071Z,19.73
2017-10-02T14:49:55.708Z,15.40
2017-10-02T14:52:23.388Z,17.08
2017-10-02T14:54:51.103Z,18.58
2017-10-02T14:57:18.948Z,31.23
2017-10-02T14:59:47.600Z,19.95
2017-10-02T15:02:16.110Z,24.48
2017-10-02T15:04:43.792Z,57.62
2017-10-02T15:07:11.465Z,21.35
2017-10-02T15:09:39.199Z,14.23
2017-10-02T15:12:06.826Z,22.85
2017-10-02T15:14:34.508Z,40.63
2017-10-02T15:17:02.150Z,21.33
2017-10-02T15:19:30.151Z,17.15
2017-10-02T15:21:57.964Z,24.15
2017-10-02T15:24:26.321Z,20.12
2017-10-02T15:26:53.943Z,15.10
2017-10-02T15:29:21.565Z,13.73
2017-10-02T15:31:50.046Z,18.42
2017-10-02T15:34:17.643Z,25.45
2017-10-02T15:36:45.268Z,18.37
2017-10-02T15:39:12.899Z,16.98
2017-10-02T15:41:40.554Z,17.23
2017-10-02T15:44:08.151Z,15.73
2017-10-02T15:46:35.747Z,16.17
2017-10-02T15:49:03.333Z,20.27
2017-10-02T15:51:30.969Z,22.17
2017-10-02T15:53:58.573Z,17.00
2017-10-02T15:56:26.187Z,21.12
2017-10-02T15:58:53.903Z,17.15
2017-10-02T16:01:21.541Z,24.27
2017-10-02T16:03:49.160Z,20.83
2017-10-02T16:06:16.820Z,21.70
2017-10-02T16:08:44.454Z,19.08
2017-10-02T16:11:12.081Z,19.08
2017-10-02T16:13:39.725Z,18.95
2017-10-02T16:16:07.345Z,24.10
2017-10-02T16:18:34.999Z,24.17
2017-10-02T16:21:02.620Z,19.33
2017-10-02T16:23:30.262Z,21.50
2017-10-02T16:25:57.913Z,24.45
2017-10-02T16:28:25.537Z,20.98
2017-10-02T16:30:53.162Z,20.95
2017-10-02T16:33:20.749Z,41.13
2017-10-02T16:35:48.496Z,46.55
2017-10-02T16:38:16.150Z,23.17
2017-10-02T16:40:43.745Z,22.60
2017-10-02T16:43:11.409Z,24.12
2017-10-02T16:45:39.030Z,19.48
2017-10-02T16:48:06.635Z,27.80
2017-10-02T16:50:34.263Z,26.15
2017-10-02T16:53:01.912Z,26.87
2017-10-02T16:55:29.548Z,24.02
2017-10-02T16:57:57.157Z,26.55
2017-10-02T17:00:24.794Z,24.42
2017-10-02T17:02:52.390Z,26.33
2017-10-02T17:05:19.994Z,28.52
2017-10-02T17:07:47.585Z,34.38
2017-10-02T17:10:15.206Z,28.65
2017-10-02T17:12:42.923Z,22.98
2017-10-02T17:15:10.569Z,22.10
2017-10-02T17:17:38.234Z,24.30
2017-10-02T17:20:06.041Z,24.75
2017-10-02T17:22:33.662Z,16.05
2017-10-02T17:25:01.291Z,20.08
2017-10-02T17:27:29.045Z,18.80
2017-10-02T17:29:56.666Z,16.77
2017-10-02T17:32:24.537Z,17.62
2017-10-02T17:34:52.192Z,22.10
2017-10-02T17:37:19.840Z,17.40
2017-10-02T17:39:47.462Z,18.15
2017-10-02T17:42:15.875Z,18.77
2017-10-02T17:44:43.505Z,19.27
2017-10-02T17:47:11.164Z,15.02
2017-10-02T17:49:38.881Z,16.77
2017-10-02T17:52:07.437Z,20.35
2017-10-02T17:54:35.099Z,12.95
2017-10-02T17:57:03.075Z,14.85
2017-10-02T17:59:30.716Z,15.95
2017-10-02T18:01:58.296Z,12.95
2017-10-02T18:04:25.927Z,13.65
2017-10-02T18:06:53.618Z,8.77
2017-10-02T18:09:21.253Z,13.25
2017-10-02T18:11:48.898Z,8.55
2017-10-02T18:14:16.547Z,10.40
2017-10-02T18:16:44.200Z,9.15
2017-10-02T18:19:11.856Z,8.80
2017-10-02T18:21:39.813Z,8.88
2017-10-02T18:24:07.598Z,5.28
2017-10-02T18:26:35.291Z,8.60
2017-10-02T18:29:02.935Z,15.02
2017-10-02T18:31:30.622Z,8.18
2017-10-02T18:33:58.315Z,5.60
2017-10-02T18:36:25.999Z,7.68
2017-10-02T18:38:53.626Z,7.10
2017-10-02T18:41:21.269Z,13.10
2017-10-02T18:43:49.018Z,16.45
2017-10-02T18:46:16.706Z,8.75
2017-10-02T18:48:44.309Z,8.50
2017-10-02T18:51:12.589Z,6.45
2017-10-02T18:53:40.180Z,12.82
2017-10-02T18:56:07.796Z,8.02
2017-10-02T18:58:35.430Z,9.45
2017-10-02T19:01:03.067Z,9.00
2017-10-02T19:03:30.697Z,10.65
2017-10-02T19:05:58.441Z,8.48
2017-10-02T19:08:26.123Z,10.93
2017-10-02T19:10:53.751Z,9.07
2017-10-02T19:13:21.374Z,8.50
2017-10-02T19:15:49.010Z,11.43
2017-10-02T19:18:16.726Z,9.82
2017-10-02T19:20:44.398Z,8.85
2017-10-02T19:23:12.028Z,10.10
2017-10-02T19:25:39.693Z,10.45
2017-10-02T19:28:08.099Z,10.25
2017-10-02T19:30:35.684Z,8.85
2017-10-02T19:33:04.233Z,10.90
2017-10-02T19:35:31.872Z,13.60
2017-10-02T19:37:59.495Z,16.00
2017-10-02T19:40:27.136Z,11.00
2017-10-02T19:42:54.774Z,11.70
2017-10-02T19:45:22.406Z,10.55
2017-10-02T19:47:50.044Z,10.25
2017-10-02T19:50:17.684Z,12.10
2017-10-02T19:52:45.317Z,12.50
2017-10-02T19:55:12.930Z,8.77
2017-10-02T19:57:40.516Z,7.18
2017-10-02T20:00:08.130Z,6.78
2017-10-02T20:02:35.764Z,10.70
2017-10-02T20:05:04.129Z,8.35
2017-10-02T20:07:32.492Z,8.50
2017-10-02T20:10:00.048Z,8.00
2017-10-02T20:12:27.655Z,9.63
2017-10-02T20:14:55.255Z,8.07
2017-10-02T20:17:22.877Z,8.60
2017-10-02T20:19:50.533Z,10.85
2017-10-02T20:22:18.176Z,10.52
2017-10-02T20:24:45.886Z,11.60
2017-10-02T20:27:13.550Z,13.13
2017-10-02T20:29:41.173Z,10.73
2017-10-02T20:32:09.554Z,9.77
2017-10-02T20:34:37.195Z,12.70
2017-10-02T20:37:04.829Z,11.90
2017-10-02T20:39:32.459Z,14.35
2017-10-02T20:42:00.102Z,13.65
2017-10-02T20:44:28.497Z,14.65
2017-10-02T20:46:56.143Z,20.05
2017-10-02T20:49:23.802Z,12.65
2017-10-02T20:51:52.167Z,14.80
2017-10-02T20:54:19.801Z,18.87
2017-10-02T20:56:47.426Z,12.70
2017-10-02T20:59:15.063Z,12.65
2017-10-02T21:01:42.706Z,10.77
2017-10-02T21:04:10.372Z,17.35
2017-10-02T21:06:38.002Z,9.50
2017-10-02T21:09:05.674Z,9.93
2017-10-02T21:11:33.348Z,8.77
2017-10-02T21:14:01.099Z,10.85
2017-10-02T21:16:28.645Z,11.02
2017-10-02T21:18:56.329Z,10.95
2017-10-02T21:21:23.955Z,10.57
2017-10-02T21:23:51.540Z,10.35
2017-10-02T21:26:19.180Z,11.30
2017-10-02T21:28:47.560Z,8.60
2017-10-02T21:31:15.189Z,14.85
2017-10-02T21:33:42.810Z,8.30
2017-10-02T21:36:10.394Z,6.70
2017-10-02T21:38:38.059Z,7.70
2017-10-02T21:41:06.526Z,7.75
2017-10-02T21:43:34.164Z,6.35
2017-10-02T21:46:01.859Z,6.07
2017-10-02T21:48:30.318Z,5.40
2017-10-02T21:50:57.938Z,5.90
2017-10-02T21:53:25.559Z,6.87
2017-10-02T21:55:53.186Z,5.95
2017-10-02T21:58:20.822Z,7.97
2017-10-02T22:00:48.442Z,9.18
2017-10-02T22:03:16.039Z,8.73
2017-10-02T22:05:43.751Z,10.48
2017-10-02T22:08:11.346Z,13.27
2017-10-02T22:10:38.950Z,12.07
2017-10-02T22:13:06.591Z,17.15
2017-10-02T22:15:34.195Z,12.65
2017-10-02T22:18:01.792Z,14.98
2017-10-02T22:20:29.432Z,17.30
2017-10-02T22:22:57.164Z,19.27
2017-10-02T22:25:24.800Z,20.48
2017-10-02T22:27:52.393Z,22.35
2017-10-02T22:30:19.955Z,20.88
2017-10-02T22:32:47.527Z,21.40
2017-10-02T22:35:15.144Z,31.75
2017-10-02T22:37:42.773Z,25.17
2017-10-02T22:40:10.420Z,26.65
2017-10-02T22:42:38.058Z,27.67
2017-10-02T22:45:05.678Z,27.58
2017-10-02T22:47:33.320Z,30.23
2017-10-02T22:50:01.691Z,23.33
2017-10-02T22:52:30.189Z,34.65
2017-10-02T22:54:57.821Z,29.08
2017-10-02T22:57:25.465Z,32.78
2017-10-02T22:59:53.050Z,32.95
2017-10-02T23:02:20.650Z,30.95
2017-10-02T23:04:48.340Z,26.80
2017-10-02T23:07:15.934Z,30.67
2017-10-02T23:09:43.570Z,31.95
2017-10-02T23:12:11.197Z,29.67
2017-10-02T23:14:38.822Z,37.75
2017-10-02T23:17:06.450Z,34.47
2017-10-02T23:19:34.080Z,33.67
2017-10-02T23:22:01.670Z,29.77
2017-10-02T23:24:29.301Z,29.77
2017-10-02T23:26:56.888Z,38.30
2017-10-02T23:29:24.526Z,30.60
2017-10-02T23:31:52.163Z,31.70
2017-10-02T23:34:20.575Z,31.17
2017-10-02T23:36:48.179Z,36.53
2017-10-02T23:39:15.852Z,30.60
2017-10-02T23:41:43.580Z,34.63
2017-10-02T23:44:11.363Z,37.75
2017-10-02T23:46:39.004Z,35.72
2017-10-02T23:49:06.646Z,33.55
2017-10-02T23:51:34.266Z,36.33
2017-10-02T23:54:01.860Z,38.20
2017-10-02T23:56:29.487Z,34.28
2017-10-02T23:58:57.121Z,34.15
